Aérodrome :
LOGIN :

S'inscrire | Disclaimer

   EN    FR    IT 

 










Légende :    VFR   VFR Marginal   IFR   IFR Intensif   IFR Très Intensif
Visi : 
Plafond : 
>= 8 km
>= 3000ft
5 à 8 km
1000 à 3000 ft
1500m à 5 km
500 à 1000 ft
800 à 1500m
200 à 500 ft
< 800m
< 200 ft
Symboles :   Orages  Brouillard  Fortes neiges  Fortes précipitations  Vent > 20 kt
SIGMETs :   Divers  Orages  Givrage  Turbulence  Onde Orograph.  Cendres Volcan.






- Altitude de l'aérodrome : -13 ft
- Code IATA : LEY


EHLE - Lelystad

DERNIER METAR :
  • 100955Z AUTO 20010KT 9999 // NSC 05/02 Q1023 RE// NOSIG

METARs EXPIRÉS :
  • 100925Z AUTO 20010KT 170V230 9999 // NSC 04/02 Q1023 RE// NOSIG
  • 100855Z AUTO 21008KT 9999 // NSC 04/02 Q1023 RE// NOSIG
  • 100825Z AUTO 21009KT 9999 // NSC 03/01 Q1023 RE// NOSIG
  • 100755Z AUTO 20007KT 9999 // NSC 03/01 Q1023 RE// NOSIG
  • 100725Z AUTO 21008KT 170V230 9999 // NSC 03/01 Q1023 RE// NOSIG

TAF TAF EHLE
Valide du 10 à 06h jusqu'au 11 à 12h UTC


100512Z 1006/1112 22006KT 9999 SCT030
BECMG 1009/1012 19015KT
BECMG 1015/1018 19021G31KT
BECMG 1023/1102 7000 RA
BECMG 1101/1104 20008KT
TEMPO 1101/1105 SCT008 BKN012
BECMG 1105/1108 9999 NSW SCT020
PROB30 1107/1111 BKN005



MET'MAP, la Météo Aéronautique d'un coup d'oeil ! - Copyright ORBIFLY Décembre 2007 - Disclaimer

ORBIFLY MET'MAP TEAM :

Programmation & Développement : Alexandra Zaïnal
Sur une idée originale de : Baudouin d'Aumeries
Assistance à la programmation : Marc-Olivier Méhu
Soutien technique & logistique : Manuel Goepfert

Contact : metmap@orbifly.com




SOURCES & CREDITS :

   NOAA